Ellerbe, North Carolina
Current Conditions -  °F | °C
As of 5:56 PM on Tuesday 27 Jan 2015 (Local Time) from KHFF Reporting Station
Clear Clear  
Wind Chill: 37°   Ceiling: Unl
Heat Index: 41°   Visibility: 10mi
Dew Point: 16°   Wind: 6mph
Humidity: 36%   Direction: 280°W
Pressure: 29.89"   Gusts: NA
Location:  35.07°N, 79.76°W
Report Text: KHFF 272256Z AUTO 28005KT 10SM CLR 05/M09 A2989 RMK AO2 SLP126 T00481091
Loading
Personal Weather Stations






























Interactive Weather Map New forecast layout! Learn more

10-Day Weather Forecast

Advertisements
Track Severe Weather on mobile